Airport ICAO


14:45 UTC

25°C

Broken clouds


An affordable passengers' Moving Map for your aircraft. Made for the iPad and the iPhone
More information here

LFMN Cote D'Azur


Nice FRANCE   VFR


METAR LFMN 231430Z 17004KT 9999 FEW021 BKN040 25/20 Q1017 NOSIG 0h15min

TAF LFMN 231400Z 2315/2421 18010KT 9999 FEW020 BKN040 BECMG 2317/2319 VRB03KT TEMPO 2319/2403 OVC010 BECMG 2401/2403 08013KT BECMG 2407/2409 BKN014 BECMG 2415/2417 CAVOK 0h45min





NOTAMS

OPEN